Time;durP1;ratioP1;P1;durP2;ratioP2;P2;SDS_P1;SDS_P2;PMS_P1;PMS_P2;Temp;Humidity;BMP_temperature;BMP_pressure;BME280_temperature;BME280_humidity;BME280_pressure;Samples;Min_cycle;Max_cycle;Signal;HPM_P1;HPM_P2
2022/08/05 00:01:42;;;;;;;16.87;8.63;;;;;;;18.06;100.00;100921.75;4921637;29;20028;-74
2022/08/05 00:04:08;;;;;;;20.03;8.97;;;;;;;18.06;100.00;100929.03;4927053;29;20044;-73
2022/08/05 00:06:33;;;;;;;19.53;9.10;;;;;;;18.02;100.00;100927.78;4927792;29;20034;-74
2022/08/05 00:09:00;;;;;;;18.40;7.70;;;;;;;17.97;100.00;100924.88;4940382;29;20280;-74
2022/08/05 00:11:26;;;;;;;14.00;8.13;;;;;;;17.97;100.00;100928.41;4929824;28;20038;-73
2022/08/05 00:13:51;;;;;;;;;;;;;;;17.95;100.00;100927.78;4928098;29;20036;-74
2022/08/05 00:16:17;;;;;;;;;;;;;;;17.91;100.00;100935.47;4930641;28;19918;-76
2022/08/05 00:18:44;;;;;;;12.20;6.70;;;;;;;17.87;100.00;100925.28;4927475;29;20346;-76
2022/08/05 00:21:10;;;;;;;13.63;7.38;;;;;;;17.85;100.00;100925.47;4941882;29;20031;-74
2022/08/05 00:23:37;;;;;;;16.40;7.15;;;;;;;17.80;100.00;100919.00;4939177;29;20510;-74
2022/08/05 00:26:02;;;;;;;;;;;;;;;17.76;100.00;100928.56;4926200;29;20453;-74
2022/08/05 00:28:27;;;;;;;11.43;6.25;;;;;;;17.60;100.00;100929.75;4927414;29;20025;-74
2022/08/05 00:30:53;;;;;;;9.63;6.10;;;;;;;17.67;100.00;100944.09;4941497;29;20179;-74
2022/08/05 00:33:18;;;;;;;14.33;7.07;;;;;;;17.67;100.00;100939.53;4959918;28;20093;-73
2022/08/05 00:35:43;;;;;;;14.50;6.43;;;;;;;17.66;100.00;100934.34;4921425;29;20066;-73
2022/08/05 00:38:09;;;;;;;13.87;6.20;;;;;;;17.60;100.00;100933.28;4919812;29;20094;-73
2022/08/05 00:40:46;;;;;;;14.43;6.23;;;;;;;17.62;100.00;100947.41;4919866;29;20027;-73
2022/08/05 00:43:11;;;;;;;11.15;5.57;;;;;;;17.60;100.00;100952.19;4916787;29;20093;-73
2022/08/05 00:45:37;;;;;;;10.03;5.60;;;;;;;17.64;100.00;100947.22;4924564;28;20031;-73
2022/08/05 00:48:02;;;;;;;8.67;5.83;;;;;;;17.62;100.00;100944.72;4924044;29;20040;-74
2022/08/05 00:50:27;;;;;;;8.03;4.53;;;;;;;17.63;100.00;100949.09;4940719;29;20043;-74
2022/08/05 00:52:53;;;;;;;11.03;5.13;;;;;;;17.65;100.00;100930.84;4927084;29;20095;-74
2022/08/05 00:55:18;;;;;;;10.27;4.57;;;;;;;17.69;100.00;100925.84;4927095;29;20114;-73
2022/08/05 00:57:44;;;;;;;11.20;4.83;;;;;;;17.55;100.00;100914.19;4927334;29;20028;-74
2022/08/05 01:00:10;;;;;;;10.53;4.10;;;;;;;17.44;100.00;100902.13;4937001;29;20062;-76
2022/08/05 01:02:35;;;;;;;5.85;4.45;;;;;;;17.46;100.00;100926.19;4941714;29;20063;-75
2022/08/05 01:05:01;;;;;;;7.37;3.90;;;;;;;17.44;100.00;100928.25;4931710;29;20467;-76
2022/08/05 01:07:27;;;;;;;7.35;4.88;;;;;;;17.39;100.00;100931.56;4941692;29;20040;-74
2022/08/05 01:09:52;;;;;;;7.60;4.33;;;;;;;17.44;100.00;100923.72;4926736;29;20035;-73
2022/08/05 01:12:20;;;;;;;10.50;4.43;;;;;;;17.33;100.00;100926.19;4941564;29;20198;-77
2022/08/05 01:15:05;;;;;;;11.05;4.38;;;;;;;17.33;100.00;100942.38;4934143;29;20150;-76
2022/08/05 01:17:39;;;;;;;15.95;5.68;;;;;;;17.33;100.00;100951.28;4937792;29;20027;-74
2022/08/05 01:20:10;;;;;;;9.27;5.07;;;;;;;17.26;100.00;100972.84;4926399;29;20043;-74
2022/08/05 01:22:36;;;;;;;9.27;5.28;;;;;;;17.18;100.00;100988.34;4941732;29;20508;-79
2022/08/05 01:25:36;;;;;;;18.20;6.23;;;;;;;17.08;100.00;100977.94;4940058;28;20028;-77
2022/08/05 01:28:08;;;;;;;9.73;5.47;;;;;;;17.06;100.00;100971.91;4961944;28;20444;-78
2022/08/05 01:30:36;;;;;;;12.57;4.80;;;;;;;16.99;100.00;100973.75;4932455;29;20036;-75
2022/08/05 01:33:07;;;;;;;7.32;4.30;;;;;;;16.83;100.00;100964.97;4939810;29;20035;-77
2022/08/05 01:35:36;;;;;;;11.88;4.60;;;;;;;16.76;100.00;100958.63;4927025;28;20125;-76
2022/08/05 01:38:04;;;;;;;6.57;4.10;;;;;;;16.71;100.00;100938.69;4941680;29;20103;-76
2022/08/05 01:40:31;;;;;;;5.78;3.88;;;;;;;16.68;100.00;100908.41;4931859;29;20477;-76
2022/08/05 01:42:59;;;;;;;9.27;4.55;;;;;;;16.68;100.00;100907.59;4920861;29;20122;-77
2022/08/05 01:45:28;;;;;;;5.90;3.83;;;;;;;16.62;100.00;100911.06;4938935;28;20055;-74
2022/08/05 01:47:54;;;;;;;6.82;3.42;;;;;;;16.63;100.00;100908.19;4913057;29;20016;-77
2022/08/05 01:50:24;;;;;;;7.05;3.88;;;;;;;16.67;100.00;100905.94;4941039;29;20416;-77
2022/08/05 01:52:53;;;;;;;7.18;3.60;;;;;;;16.64;100.00;100892.84;4913664;29;20481;-76
2022/08/05 01:55:22;;;;;;;6.20;3.30;;;;;;;16.63;100.00;100878.53;4924138;29;20032;-78
2022/08/05 01:57:51;;;;;;;5.30;3.38;;;;;;;16.63;100.00;100866.91;4914001;28;20033;-76
2022/08/05 02:00:17;;;;;;;10.80;4.32;;;;;;;16.57;100.00;100868.53;4923254;29;20062;-78
2022/08/05 02:02:53;;;;;;;7.68;3.30;;;;;;;16.58;100.00;100864.00;4922410;29;20038;-78
2022/08/05 02:05:19;;;;;;;6.63;3.28;;;;;;;16.58;100.00;100859.44;4939847;28;20043;-73
2022/08/05 02:07:45;;;;;;;;;;;;;;;16.64;100.00;100863.19;4941936;29;20032;-74
2022/08/05 02:10:10;;;;;;;;;;;;;;;16.70;100.00;100870.47;4926738;29;19918;-74
2022/08/05 02:13:00;;;;;;;8.63;3.53;;;;;;;16.56;100.00;100833.72;4927039;29;19958;-77
2022/08/05 02:15:58;;;;;;;7.35;2.90;;;;;;;16.68;100.00;100848.28;4918873;29;20410;-77
2022/08/05 02:18:40;;;;;;;6.85;2.78;;;;;;;16.65;100.00;100827.13;4951129;28;20087;-74
2022/08/05 02:21:10;;;;;;;7.60;2.90;;;;;;;16.65;100.00;100808.25;4912357;29;20044;-76
2022/08/05 02:23:39;;;;;;;4.10;2.65;;;;;;;16.70;100.00;100797.69;4926099;29;20477;-76
2022/08/05 02:26:08;;;;;;;5.63;2.60;;;;;;;16.78;100.00;100784.03;4935991;29;20062;-74
2022/08/05 02:28:40;;;;;;;4.88;2.63;;;;;;;16.80;100.00;100776.59;4926409;29;20128;-74
2022/08/05 02:31:09;;;;;;;6.68;3.45;;;;;;;16.73;100.00;100764.09;4912480;29;20043;-74
2022/08/05 02:33:38;;;;;;;5.90;2.75;;;;;;;16.80;100.00;100779.28;4926042;29;20023;-74
2022/08/05 02:36:06;;;;;;;5.28;2.80;;;;;;;16.81;100.00;100766.63;4923607;29;20059;-76
2022/08/05 02:38:33;;;;;;;5.57;3.03;;;;;;;16.79;100.00;100756.06;4922138;29;20048;-74
2022/08/05 02:40:59;;;;;;;10.50;2.88;;;;;;;16.75;100.00;100738.59;4926295;29;20085;-74
2022/08/05 02:43:25;;;;;;;;;;;;;;;16.77;100.00;100720.38;4939130;29;20028;-74
2022/08/05 02:45:51;;;;;;;;;;;;;;;16.75;100.00;100718.91;4926563;29;19925;-77
2022/08/05 02:48:18;;;;;;;3.80;2.42;;;;;;;16.73;100.00;100729.06;4940342;29;19919;-74
2022/08/05 02:50:47;;;;;;;7.75;2.63;;;;;;;16.65;100.00;100725.53;4913065;29;20040;-74
2022/08/05 02:53:14;;;;;;;7.60;2.50;;;;;;;16.70;100.00;100727.63;4928156;29;20039;-74
2022/08/05 02:55:40;;;;;;;5.57;2.42;;;;;;;16.72;100.00;100735.50;4925755;29;20427;-76
2022/08/05 02:58:05;;;;;;;4.43;2.15;;;;;;;16.76;100.00;100755.59;4935590;29;20027;-76
2022/08/05 03:00:33;;;;;;;6.25;2.40;;;;;;;16.72;100.00;100763.28;4925356;29;20036;-75
2022/08/05 03:03:00;;;;;;;7.38;2.80;;;;;;;16.80;100.00;100782.00;4942800;29;20046;-77
2022/08/05 03:05:26;;;;;;;6.03;3.47;;;;;;;16.72;100.00;100784.84;4926315;29;20035;-73
2022/08/05 03:07:53;;;;;;;8.65;2.72;;;;;;;16.72;100.00;100808.28;4926061;29;20051;-76
2022/08/05 03:10:19;;;;;;;6.05;3.10;;;;;;;16.68;100.00;100807.84;4925156;29;20035;-77
2022/08/05 03:12:46;;;;;;;5.80;2.75;;;;;;;16.68;100.00;100814.06;4936973;29;20034;-76
2022/08/05 03:15:11;;;;;;;;;;;;;;;16.73;100.00;100821.53;4924852;29;20039;-76
2022/08/05 03:17:36;;;;;;;;;;;;;;;16.67;100.00;100846.63;4921623;29;20272;-78
2022/08/05 03:20:03;;;;;;;4.80;3.33;;;;;;;16.52;100.00;100848.63;4923402;29;19915;-74
2022/08/05 03:22:29;;;;;;;10.10;4.05;;;;;;;16.40;100.00;100867.19;4924541;29;20059;-77
2022/08/05 03:24:55;;;;;;;20.83;6.80;;;;;;;16.36;100.00;100899.09;4921454;29;20086;-77
2022/08/05 03:27:21;;;;;;;13.48;4.82;;;;;;;16.46;100.00;100953.47;4939910;29;20050;-75
2022/08/05 03:29:47;;;;;;;15.32;6.05;;;;;;;16.13;100.00;100976.59;4936585;28;20036;-76
2022/08/05 03:32:14;;;;;;;17.13;6.70;;;;;;;16.07;100.00;100985.47;4939451;29;20365;-76
2022/08/05 03:34:40;;;;;;;9.90;5.85;;;;;;;15.83;100.00;101023.34;4936839;28;20044;-76
2022/08/05 03:37:06;;;;;;;9.38;5.30;;;;;;;15.86;100.00;101035.59;4940675;29;20529;-76
2022/08/05 03:39:31;;;;;;;12.20;5.30;;;;;;;16.01;100.00;101028.31;4927598;29;20035;-73
2022/08/05 03:41:57;;;;;;;21.67;8.47;;;;;;;16.01;100.00;101005.91;4943021;29;20039;-73
2022/08/05 03:44:24;;;;;;;16.55;7.25;;;;;;;16.00;100.00;100996.19;4942547;28;20383;-75
2022/08/05 03:46:49;;;;;;;;;;;;;;;16.06;100.00;100989.19;4929327;29;20035;-76
2022/08/05 03:49:14;;;;;;;;;;;;;;;16.03;100.00;100988.53;4928149;29;20508;-77
2022/08/05 03:52:01;;;;;;;15.07;6.73;;;;;;;16.01;100.00;101000.53;4927739;29;20423;-77
2022/08/05 03:54:36;;;;;;;16.52;6.80;;;;;;;15.95;100.00;100985.16;4942591;29;20061;-77
2022/08/05 03:57:04;;;;;;;12.88;7.75;;;;;;;15.96;100.00;100978.72;4928034;29;20046;-76
2022/08/05 03:59:36;;;;;;;16.40;8.07;;;;;;;15.86;100.00;100979.06;4921700;29;20027;-77
2022/08/05 04:02:03;;;;;;;20.23;7.72;;;;;;;15.90;100.00;100961.50;4940635;28;20043;-73
2022/08/05 04:04:31;;;;;;;14.45;7.38;;;;;;;15.70;100.00;100957.72;4942797;29;20101;-77
2022/08/05 04:06:57;;;;;;;17.27;7.80;;;;;;;15.85;100.00;100950.47;4914611;29;20102;-77
2022/08/05 04:09:23;;;;;;;11.27;8.43;;;;;;;15.78;100.00;100922.63;4927262;29;20020;-77
2022/08/05 04:11:49;;;;;;;15.50;8.75;;;;;;;15.73;100.00;100923.25;4914456;29;20382;-77
2022/08/05 04:14:16;;;;;;;17.95;8.30;;;;;;;15.69;100.00;100919.22;4930155;29;20473;-77
2022/08/05 04:16:42;;;;;;;11.75;7.78;;;;;;;15.75;100.00;100893.41;4927486;29;20071;-76
2022/08/05 04:19:10;;;;;;;11.88;7.22;;;;;;;15.86;100.00;100903.66;4941862;29;20117;-76
2022/08/05 04:21:35;;;;;;;15.85;8.32;;;;;;;15.79;100.00;100910.84;4927800;29;20206;-73
2022/08/05 04:24:03;;;;;;;21.60;8.33;;;;;;;15.74;100.00;100905.22;4914233;29;20503;-74
2022/08/05 04:26:28;;;;;;;14.77;9.07;;;;;;;15.77;100.00;100899.44;4942008;28;20035;-76
2022/08/05 04:28:54;;;;;;;19.03;9.17;;;;;;;15.64;100.00;100892.06;4927476;29;20027;-77
2022/08/05 04:31:19;;;;;;;13.63;8.50;;;;;;;15.70;100.00;100887.75;4941590;29;20040;-77
2022/08/05 04:33:44;;;;;;;13.30;8.03;;;;;;;15.74;100.00;100894.44;4927468;29;20789;-75
2022/08/05 04:36:11;;;;;;;18.30;9.30;;;;;;;15.75;100.00;100891.56;4925625;29;20054;-77
2022/08/05 04:38:36;;;;;;;;;;;;;;;15.80;100.00;100889.13;4934085;29;20385;-75
2022/08/05 04:41:02;;;;;;;15.80;8.45;;;;;;;15.82;100.00;100886.22;4926962;29;19948;-77
2022/08/05 04:43:27;;;;;;;16.07;7.90;;;;;;;15.79;100.00;100897.41;4938162;29;20607;-75
2022/08/05 04:45:52;;;;;;;19.07;8.53;;;;;;;15.81;100.00;100900.72;4926738;29;20036;-75
2022/08/05 04:48:18;;;;;;;17.23;8.53;;;;;;;15.76;100.00;100893.22;4977142;28;20066;-77
2022/08/05 04:50:46;;;;;;;17.23;8.30;;;;;;;15.72;100.00;100909.97;4926617;29;20524;-77
2022/08/05 04:53:14;;;;;;;17.63;8.57;;;;;;;15.73;100.00;100914.31;4926922;29;20034;-77
2022/08/05 04:55:41;;;;;;;21.70;9.07;;;;;;;15.79;100.00;100919.75;4942181;28;20039;-77
2022/08/05 04:58:08;;;;;;;12.80;8.00;;;;;;;15.84;100.00;100935.34;4926739;29;20419;-77
2022/08/05 05:00:35;;;;;;;14.82;8.73;;;;;;;15.88;100.00;100942.00;4922091;29;20063;-77
2022/08/05 05:03:01;;;;;;;14.40;9.00;;;;;;;15.78;100.00;100938.78;4939364;29;20031;-74
2022/08/05 05:05:27;;;;;;;;;;;;;;;15.85;100.00;100939.72;4938267;29;20032;-76
2022/08/05 05:07:54;;;;;;;;;;;;;;;15.89;100.00;100950.91;4927045;29;20496;-77
2022/08/05 05:10:19;;;;;;;15.82;7.65;;;;;;;15.90;100.00;100941.81;4928782;28;19915;-77
2022/08/05 05:12:45;;;;;;;15.07;8.27;;;;;;;15.94;100.00;100943.91;4934063;29;20038;-77
2022/08/05 05:15:10;;;;;;;12.57;7.93;;;;;;;15.94;100.00;100954.69;4940770;28;20040;-76
2022/08/05 05:17:40;;;;;;;16.40;7.63;;;;;;;15.99;100.00;100946.88;4942001;29;20019;-73
2022/08/05 05:20:07;;;;;;;16.33;7.63;;;;;;;15.97;100.00;100942.72;4922534;29;20102;-73
2022/08/05 05:22:33;;;;;;;16.15;7.40;;;;;;;15.90;100.00;100964.19;4967545;28;20093;-76
2022/08/05 05:24:59;;;;;;;13.32;7.65;;;;;;;15.83;100.00;100965.97;4917557;29;20039;-77
2022/08/05 05:27:28;;;;;;;9.80;6.53;;;;;;;15.87;100.00;100969.94;4912603;29;20051;-77
2022/08/05 05:29:53;;;;;;;12.93;6.80;;;;;;;15.84;100.00;100981.09;4935188;29;20043;-77
2022/08/05 05:32:18;;;;;;;11.77;6.67;;;;;;;15.87;100.00;100988.78;4941983;28;20491;-77
2022/08/05 05:34:44;;;;;;;10.00;5.80;;;;;;;15.82;100.00;100967.00;4926850;29;20031;-76
2022/08/05 05:37:11;;;;;;;12.00;5.90;;;;;;;15.87;100.00;100971.81;4918145;29;20122;-77
2022/08/05 05:39:36;;;;;;;12.48;5.50;;;;;;;15.88;100.00;100968.94;4937710;28;20500;-76
2022/08/05 05:42:02;;;;;;;11.33;5.77;;;;;;;15.92;100.00;100962.13;4938363;29;20031;-75
2022/08/05 05:44:27;;;;;;;8.57;4.80;;;;;;;15.88;100.00;100952.78;4941241;28;20675;-77
2022/08/05 05:46:53;;;;;;;11.33;5.00;;;;;;;15.94;100.00;100976.22;4941443;29;20035;-76
2022/08/05 05:49:18;;;;;;;9.20;4.47;;;;;;;16.20;100.00;100980.19;4940688;29;20043;-74
2022/08/05 05:51:43;;;;;;;6.27;4.07;;;;;;;16.59;100.00;100968.06;4933501;29;20518;-76
2022/08/05 05:54:09;;;;;;;11.57;3.93;;;;;;;16.86;100.00;100967.25;4924730;29;20123;-76
2022/08/05 05:56:34;;;;;;;8.80;3.60;;;;;;;16.96;100.00;100966.06;4915498;29;20026;-75
2022/08/05 05:59:05;;;;;;;9.17;5.07;;;;;;;16.90;100.00;100956.06;4929251;29;20969;-74
2022/08/05 06:01:35;;;;;;;6.53;3.47;;;;;;;17.15;100.00;100973.41;4925428;29;20035;-75
2022/08/05 06:04:00;;;;;;;10.65;4.00;;;;;;;16.95;100.00;100953.59;4920513;29;20915;-74
2022/08/05 06:06:26;;;;;;;8.93;3.80;;;;;;;16.88;100.00;100951.72;4941102;28;20106;-73
2022/08/05 06:08:51;;;;;;;7.50;4.10;;;;;;;16.90;100.00;100953.34;4926193;29;20473;-76
2022/08/05 06:11:16;;;;;;;9.37;5.20;;;;;;;16.70;100.00;100958.63;4925453;29;20404;-77
2022/08/05 06:13:42;;;;;;;8.43;3.03;;;;;;;17.09;100.00;100969.66;4926523;29;20031;-77
2022/08/05 06:16:07;;;;;;;8.27;3.57;;;;;;;16.93;100.00;100936.78;4936193;29;20135;-75
2022/08/05 06:18:33;;;;;;;9.73;3.97;;;;;;;16.69;100.00;100938.88;4941090;28;20501;-77
2022/08/05 06:20:59;;;;;;;13.33;4.70;;;;;;;16.67;100.00;100960.69;4921501;29;20288;-77
2022/08/05 06:23:24;;;;;;;10.15;4.50;;;;;;;16.68;100.00;100977.69;4940131;29;20119;-77
2022/08/05 06:25:50;;;;;;;8.97;4.07;;;;;;;16.52;100.00;100978.78;4940894;28;20130;-76
2022/08/05 06:28:15;;;;;;;12.87;5.40;;;;;;;16.43;100.00;100990.75;4937257;29;20040;-74
2022/08/05 06:30:41;;;;;;;7.57;4.50;;;;;;;16.43;100.00;101001.53;4931999;29;20654;-74
2022/08/05 06:33:06;;;;;;;7.83;4.60;;;;;;;16.37;100.00;101008.53;4925730;29;20046;-76
2022/08/05 06:35:31;;;;;;;11.20;5.37;;;;;;;16.41;100.00;101009.81;4915012;29;20474;-76
2022/08/05 06:37:57;;;;;;;9.13;5.40;;;;;;;16.61;100.00;101009.13;4920828;29;20107;-77
2022/08/05 06:40:22;;;;;;;7.20;4.73;;;;;;;16.78;100.00;100999.72;4924473;29;20058;-76
2022/08/05 06:42:49;;;;;;;7.33;4.30;;;;;;;17.11;100.00;101004.50;4925997;29;20039;-77
2022/08/05 06:45:14;;;;;;;7.93;4.63;;;;;;;17.50;100.00;100986.84;4940449;29;20548;-76
2022/08/05 06:47:39;;;;;;;8.30;4.03;;;;;;;17.69;100.00;100974.44;4913828;29;20143;-76
2022/08/05 06:50:05;;;;;;;10.93;3.80;;;;;;;17.65;100.00;100951.56;4924022;29;20035;-76
2022/08/05 06:52:31;;;;;;;7.72;4.43;;;;;;;18.20;100.00;100949.59;4913509;29;20116;-73
2022/08/05 06:54:56;;;;;;;10.00;4.20;;;;;;;19.96;100.00;100943.19;4923241;29;20032;-74
2022/08/05 06:57:22;;;;;;;7.90;3.60;;;;;;;20.01;100.00;100880.22;4940341;29;20051;-75
2022/08/05 06:59:47;;;;;;;7.13;2.75;;;;;;;20.02;100.00;100843.94;4920906;28;20032;-75
2022/08/05 07:02:12;;;;;;;3.50;2.33;;;;;;;20.69;100.00;100859.53;4936147;28;20051;-76
2022/08/05 07:04:39;;;;;;;4.93;2.47;;;;;;;21.00;100.00;100780.66;4925515;29;20040;-76
2022/08/05 07:07:04;;;;;;;5.83;2.70;;;;;;;20.53;100.00;100725.34;4925515;29;20112;-75
2022/08/05 07:09:30;;;;;;;6.73;2.70;;;;;;;19.88;100.00;100802.59;4925240;29;20034;-77
2022/08/05 07:11:55;;;;;;;6.70;3.77;;;;;;;19.33;100.00;100826.72;4928961;29;20044;-75
2022/08/05 07:17:04;;;;;;;11.70;2.90;;;;;;;19.80;100.00;100867.88;4927852;29;20067;-76
2022/08/05 07:19:30;;;;;;;6.53;2.00;;;;;;;19.35;100.00;100885.03;4933530;29;20043;-73
2022/08/05 07:21:56;;;;;;;9.93;2.60;;;;;;;19.55;100.00;100892.19;4928751;29;20484;-74
2022/08/05 07:24:22;;;;;;;3.40;2.03;;;;;;;19.76;100.00;100870.22;4928699;29;20751;-76
2022/08/05 07:26:47;;;;;;;3.03;2.10;;;;;;;19.95;100.00;100894.66;4935295;29;20039;-76
2022/08/05 07:29:13;;;;;;;4.97;1.90;;;;;;;19.66;100.00;100877.13;4927056;29;20488;-77
2022/08/05 07:31:39;;;;;;;6.35;2.00;;;;;;;19.43;100.00;100883.09;4927380;29;20036;-77
2022/08/05 07:34:04;;;;;;;4.38;2.00;;;;;;;19.22;100.00;100950.03;4928554;29;20036;-76
2022/08/05 07:36:32;;;;;;;4.07;2.47;;;;;;;18.90;100.00;100949.97;4917629;29;20032;-76
2022/08/05 07:39:02;;;;;;;4.05;2.17;;;;;;;18.74;100.00;100955.78;4928534;29;20809;-75
2022/08/05 07:41:28;;;;;;;7.32;2.40;;;;;;;18.70;100.00;100987.81;4924914;29;20036;-76
2022/08/05 07:43:55;;;;;;;6.75;2.22;;;;;;;18.73;100.00;101009.06;4931828;29;20118;-75
2022/08/05 07:46:20;;;;;;;6.15;2.88;;;;;;;18.67;100.00;101044.22;4927484;29;20506;-74
2022/08/05 07:48:46;;;;;;;5.97;2.27;;;;;;;18.44;100.00;101031.94;4927792;29;20473;-74
2022/08/05 07:51:12;;;;;;;3.07;1.60;;;;;;;18.68;100.00;101033.19;4938807;28;20048;-74
2022/08/05 07:53:37;;;;;;;9.98;2.33;;;;;;;18.98;100.00;101017.34;4926434;29;20031;-74
2022/08/05 07:56:03;;;;;;;5.07;2.17;;;;;;;19.17;100.00;100998.56;4919928;29;20040;-76
2022/08/05 07:58:29;;;;;;;7.20;2.08;;;;;;;19.05;100.00;100930.75;4920041;29;20706;-77
2022/08/05 08:00:54;;;;;;;8.07;1.63;;;;;;;18.84;100.00;100885.06;4912612;29;20047;-74
2022/08/05 08:03:20;;;;;;;8.67;1.90;;;;;;;19.00;100.00;100908.91;4937459;29;20409;-72
2022/08/05 08:05:45;;;;;;;7.57;1.80;;;;;;;19.04;100.00;100918.28;4927070;29;20039;-73
2022/08/05 08:08:11;;;;;;;4.40;2.07;;;;;;;18.78;100.00;100916.50;4913986;29;20032;-73
2022/08/05 08:10:37;;;;;;;7.43;1.63;;;;;;;18.90;100.00;100920.19;4915624;29;20466;-75
2022/08/05 08:13:02;;;;;;;6.47;1.60;;;;;;;18.92;100.00;100925.41;4928327;29;20028;-73
2022/08/05 08:15:28;;;;;;;5.10;1.92;;;;;;;18.77;100.00;100896.72;4927376;29;20393;-74
2022/08/05 08:17:53;;;;;;;2.37;1.40;;;;;;;18.75;100.00;100925.00;4942143;29;20441;-75
2022/08/05 08:20:21;;;;;;;3.10;1.80;;;;;;;18.51;100.00;100891.34;4941706;29;20048;-75
2022/08/05 08:22:51;;;;;;;3.70;1.67;;;;;;;18.45;100.00;100951.66;4941405;28;20088;-74
2022/08/05 08:25:17;;;;;;;4.25;1.52;;;;;;;18.06;100.00;100945.25;4920737;29;20036;-74
2022/08/05 08:27:43;;;;;;;8.37;1.90;;;;;;;18.03;100.00;100932.16;4934121;29;20084;-73
2022/08/05 08:30:10;;;;;;;5.35;1.80;;;;;;;17.88;100.00;100945.84;4926942;29;20287;-74
2022/08/05 08:32:36;;;;;;;6.82;2.03;;;;;;;18.12;100.00;100987.63;4942181;29;20035;-72
2022/08/05 08:35:01;;;;;;;5.00;1.65;;;;;;;17.90;100.00;100941.06;4940019;29;20040;-74
2022/08/05 08:37:26;;;;;;;7.03;1.57;;;;;;;17.99;100.00;100993.84;4941992;29;20024;-73
2022/08/05 08:39:52;;;;;;;3.27;1.77;;;;;;;17.79;100.00;100995.66;4941347;29;20291;-75
2022/08/05 08:42:18;;;;;;;7.10;1.80;;;;;;;17.80;100.00;100944.13;4941836;29;20118;-77
2022/08/05 08:44:44;;;;;;;4.00;1.50;;;;;;;17.70;100.00;100955.34;4941610;28;20097;-75
2022/08/05 08:47:10;;;;;;;7.25;2.55;;;;;;;17.93;100.00;100967.66;4925295;29;20039;-72
2022/08/05 08:49:38;;;;;;;3.90;1.67;;;;;;;17.90;100.00;100965.38;4922369;29;20063;-77
2022/08/05 08:52:12;;;;;;;6.20;1.80;;;;;;;18.18;100.00;101015.72;4924458;29;20052;-77
2022/08/05 08:54:38;;;;;;;5.95;2.20;;;;;;;18.13;100.00;101000.09;4938292;28;20111;-76
2022/08/05 08:57:06;;;;;;;6.70;2.03;;;;;;;18.35;100.00;100998.91;4922725;29;20170;-75
2022/08/05 08:59:32;;;;;;;5.25;1.60;;;;;;;18.45;100.00;100952.50;4941015;29;20093;-73
2022/08/05 09:01:58;;;;;;;4.28;1.40;;;;;;;18.60;100.00;100921.72;4926792;29;20370;-74
2022/08/05 09:04:24;;;;;;;5.80;2.08;;;;;;;18.60;100.00;100929.81;4941455;29;20048;-74
2022/08/05 09:06:49;;;;;;;5.67;1.67;;;;;;;18.37;100.00;100936.50;4926920;29;20054;-77
2022/08/05 09:09:15;;;;;;;6.10;2.13;;;;;;;18.08;100.00;100933.19;4927104;29;20444;-76
2022/08/05 09:11:40;;;;;;;6.60;1.70;;;;;;;18.12;100.00;100964.16;4922577;29;20039;-75
2022/08/05 09:14:06;;;;;;;4.45;1.55;;;;;;;18.06;100.00;100967.69;4940192;29;20039;-77
2022/08/05 09:16:32;;;;;;;3.88;1.52;;;;;;;18.02;100.00;100974.53;4926092;29;20431;-76
2022/08/05 09:18:58;;;;;;;4.32;1.55;;;;;;;18.12;100.00;100996.59;4926584;29;20058;-73
2022/08/05 09:21:23;;;;;;;4.60;1.90;;;;;;;18.24;100.00;100968.91;4940869;28;20568;-74
2022/08/05 09:24:03;;;;;;;4.73;1.27;;;;;;;18.07;100.00;100928.81;4934241;29;20044;-75
2022/08/05 09:26:29;;;;;;;3.53;1.25;;;;;;;18.16;100.00;100932.13;4940950;28;20397;-74
2022/08/05 09:28:59;;;;;;;4.60;1.33;;;;;;;18.16;100.00;100920.50;4954122;28;20058;-74
2022/08/05 09:31:25;;;;;;;6.40;1.38;;;;;;;17.82;100.00;100920.50;4940999;29;20086;-74
2022/08/05 09:34:03;;;;;;;2.92;1.25;;;;;;;17.76;100.00;100974.47;4938729;28;20058;-73
2022/08/05 09:36:39;;;;;;;3.22;1.35;;;;;;;17.83;100.00;100988.84;4922583;29;20044;-74
2022/08/05 09:39:07;;;;;;;5.15;1.40;;;;;;;17.82;100.00;100989.88;4925441;29;20501;-72
2022/08/05 09:41:32;;;;;;;5.70;1.40;;;;;;;17.89;100.00;101006.94;4908420;29;20027;-73
2022/08/05 09:43:58;;;;;;;2.87;1.60;;;;;;;17.93;100.00;101024.38;4922046;29;20032;-75
2022/08/05 09:46:33;;;;;;;10.43;1.83;;;;;;;18.06;100.00;101013.59;4960355;23;20057;-88
2022/08/05 09:49:03;;;;;;;6.67;1.50;;;;;;;17.92;100.00;100980.34;4968670;23;20051;-75
2022/08/05 09:51:40;;;;;;;6.82;1.60;;;;;;;17.82;100.00;100970.97;4952431;28;20327;-76
2022/08/05 09:54:10;;;;;;;2.72;1.30;;;;;;;17.97;100.00;100985.13;4957971;28;20043;-76
2022/08/05 09:56:36;;;;;;;6.25;1.83;;;;;;;18.27;100.00;100990.16;4929270;29;20215;-75
2022/08/05 09:59:07;;;;;;;4.22;1.17;;;;;;;18.24;100.00;100944.59;4934930;29;20059;-75
2022/08/05 10:01:35;;;;;;;3.72;1.38;;;;;;;18.11;100.00;100938.16;4931654;29;20483;-75
2022/08/05 10:04:12;;;;;;;5.55;1.52;;;;;;;17.93;100.00;100937.94;4932608;28;20115;-76
2022/08/05 10:06:39;;;;;;;4.45;1.60;;;;;;;17.96;100.00;100956.47;4935740;29;20024;-76
2022/08/05 10:09:15;;;;;;;3.97;1.38;;;;;;;17.86;100.00;100964.13;4945233;28;20078;-75
2022/08/05 10:11:41;;;;;;;4.88;1.73;;;;;;;17.67;100.00;100939.53;4928854;29;20106;-75
2022/08/05 10:14:25;;;;;;;4.07;1.35;;;;;;;17.50;100.00;100987.66;4957123;28;20036;-76
2022/08/05 10:16:51;;;;;;;6.00;1.83;;;;;;;17.62;100.00;101028.41;4949266;28;20031;-75
2022/08/05 10:19:17;;;;;;;8.70;2.35;;;;;;;17.46;100.00;100990.97;4952286;28;20030;-75
2022/08/05 10:21:44;;;;;;;6.68;1.70;;;;;;;17.46;100.00;100994.50;4928904;29;20036;-75
2022/08/05 10:24:12;;;;;;;9.00;3.00;;;;;;;17.70;100.00;101020.16;4929346;29;20035;-75
2022/08/05 10:26:42;;;;;;;3.08;1.27;;;;;;;17.81;100.00;101034.94;4928936;29;20032;-75
2022/08/05 10:29:08;;;;;;;4.32;2.00;;;;;;;17.75;100.00;100997.06;4940580;29;20028;-75
2022/08/05 10:31:35;;;;;;;5.32;1.55;;;;;;;17.88;100.00;101043.06;4949039;28;20077;-75
2022/08/05 10:34:00;;;;;;;6.50;1.80;;;;;;;17.88;100.00;101126.78;4928225;29;20039;-75
2022/08/05 10:36:26;;;;;;;10.02;2.50;;;;;;;17.75;100.00;101113.19;4934753;29;20058;-74
2022/08/05 10:39:00;;;;;;;7.68;2.03;;;;;;;17.76;100.00;101180.50;4948990;28;20035;-75
2022/08/05 10:41:31;;;;;;;5.30;1.75;;;;;;;17.72;100.00;101196.28;4939984;28;20097;-74
2022/08/05 10:44:01;;;;;;;5.80;2.08;;;;;;;17.41;100.00;101160.78;4939065;28;20531;-74
2022/08/05 10:46:46;;;;;;;3.30;1.80;;;;;;;17.26;100.00;101125.81;4935114;28;20055;-75
2022/08/05 10:49:12;;;;;;;7.38;1.63;;;;;;;17.34;100.00;101163.44;4937772;28;20377;-75
2022/08/05 10:51:46;;;;;;;6.00;2.00;;;;;;;17.29;100.00;101161.31;4933895;29;20026;-75
2022/08/05 10:54:13;;;;;;;7.05;1.88;;;;;;;17.05;100.00;101161.78;4949527;28;20545;-75
2022/08/05 10:56:50;;;;;;;4.07;1.77;;;;;;;16.85;100.00;101183.97;4933422;28;20111;-75
2022/08/05 10:59:25;;;;;;;4.38;2.05;;;;;;;17.02;100.00;101210.69;4942406;29;20964;-75
2022/08/05 11:02:06;;;;;;;3.83;2.10;;;;;;;16.83;100.00;101185.22;4939884;29;20031;-75
2022/08/05 11:04:42;;;;;;;5.75;2.50;;;;;;;16.71;100.00;101206.44;4955313;28;20043;-75
2022/08/05 11:07:10;;;;;;;9.77;3.10;;;;;;;16.60;100.00;101215.00;4958055;28;20043;-75
2022/08/05 11:09:38;;;;;;;6.15;2.35;;;;;;;16.63;100.00;101211.94;4955352;28;20039;-75
2022/08/05 11:12:04;;;;;;;9.63;2.80;;;;;;;16.72;100.00;101237.78;4930182;29;20040;-74
2022/08/05 11:14:38;;;;;;;7.18;2.80;;;;;;;16.76;100.00;101251.69;4965577;28;20026;-74
2022/08/05 11:17:32;;;;;;;8.18;2.30;;;;;;;16.73;100.00;101239.44;4940506;29;20043;-74
2022/08/05 11:19:58;;;;;;;6.47;2.67;;;;;;;16.79;100.00;101224.38;4928922;29;20067;-74
2022/08/05 11:22:40;;;;;;;9.05;2.33;;;;;;;16.70;100.00;101214.72;4956201;28;20062;-74